Challenge Prime — 9V5544 — position and weather

sailwx.info

Track history (hours):
 
Tides and Currents Weather Stations Pressure Air Temp Water Temp Dewpoint Dewpoint Depression Visibility Wind Speed Wind Dir Waves Ship Positions

Challenge Prime

Last reported at 2018-Jun-07 07:08 UTC. Time now 2018-Jun-18 09:41 UTC.
Position S 43°11' E 147°30'.
Warning: this ship's position is 11 days out of date.

Length 183 m; draft 8.1 m.

Type: Tanker. MMSI: 563026300.

Date/timePositionNaut miles runAvg speedWind from/ knotsBaromVisibWave heightAir tempDewpointWater temp
2018-Jun-07 07:08S 43°11' E 147°30'110.4
2018-Jun-07 07:01S 43°12' E 147°30'611.2
2018-Jun-07 06:26S 43°18' E 147°31'511.4
2018-Jun-07 05:57S 43°24' E 147°33'511.9
2018-Jun-07 05:30S 43°29' E 147°34'612.6
2018-Jun-07 05:01S 43°35' E 147°32'713.0
2018-Jun-07 04:28S 43°41' E 147°28'  
2018-May-28 23:02S 32°01' E 115°42'010.8
2018-May-28 23:00S 32°01' E 115°42'4 8.8
2018-May-28 22:30S 32°05' E 115°42'611.6
2018-May-28 22:00S 32°11' E 115°43'  
Track history (hours):
 
Tides and Currents Weather Stations Pressure Air Temp Water Temp Dewpoint Dewpoint Depression Visibility Wind Speed Wind Dir Waves Ship Positions

Challenge Prime

Last reported at 2018-Jun-07 07:08 UTC. Time now 2018-Jun-18 09:41 UTC.
Position S 43°11' E 147°30'.
Warning: this ship's position is 11 days out of date.

Length 183 m; draft 8.1 m.

Type: Tanker. MMSI: 563026300.

Date/timePositionNaut miles runAvg speedWind from/ knotsBaromVisibWave heightAir tempDewpointWater temp
2018-Jun-07 07:08S 43°11' E 147°30'110.4
2018-Jun-07 07:01S 43°12' E 147°30'611.2
2018-Jun-07 06:26S 43°18' E 147°31'511.4
2018-Jun-07 05:57S 43°24' E 147°33'511.9
2018-Jun-07 05:30S 43°29' E 147°34'612.6
2018-Jun-07 05:01S 43°35' E 147°32'713.0
2018-Jun-07 04:28S 43°41' E 147°28'  
2018-May-28 23:02S 32°01' E 115°42'010.8
2018-May-28 23:00S 32°01' E 115°42'4 8.8
2018-May-28 22:30S 32°05' E 115°42'611.6
2018-May-28 22:00S 32°11' E 115°43'  

Dump ship's entire track history